Time;durP1;ratioP1;P1;durP2;ratioP2;P2;SDS_P1;SDS_P2;PMS_P1;PMS_P2;Temp;Humidity;BMP_temperature;BMP_pressure;BME280_temperature;BME280_humidity;BME280_pressure;Samples;Min_cycle;Max_cycle;Signal;HPM_P1;HPM_P2
2022/04/05 00:01:31;;;;;;;15.23;11.20;;;9.10;99.90;;;;;;5136393;27;20039;-75
2022/04/05 00:03:58;;;;;;;19.15;10.82;;;9.20;99.90;;;;;;5136299;27;20043;-75
2022/04/05 00:06:43;;;;;;;14.63;11.38;;;9.20;99.90;;;;;;5154321;27;20061;-74
2022/04/05 00:09:10;;;;;;;18.13;11.45;;;9.20;99.90;;;;;;5118948;27;20489;-75
2022/04/05 00:11:38;;;;;;;17.50;11.50;;;9.20;99.90;;;;;;5135939;27;20409;-74
2022/04/05 00:14:05;;;;;;;19.38;11.55;;;9.10;99.90;;;;;;5135878;27;20041;-72
2022/04/05 00:16:32;;;;;;;16.52;12.18;;;9.10;99.90;;;;;;5135875;27;20043;-72
2022/04/05 00:19:00;;;;;;;16.13;11.77;;;9.00;99.90;;;;;;5135755;27;20047;-75
2022/04/05 00:21:27;;;;;;;15.32;11.55;;;9.00;99.90;;;;;;5135760;27;20046;-71
2022/04/05 00:23:54;;;;;;;15.77;11.88;;;9.00;99.90;;;;;;5136177;27;20038;-74
2022/04/05 00:26:22;;;;;;;18.00;12.95;;;8.90;99.90;;;;;;5153977;27;20115;-73
2022/04/05 00:28:49;;;;;;;16.30;12.18;;;9.00;99.90;;;;;;5118844;27;20112;-74
2022/04/05 00:31:17;;;;;;;20.30;12.85;;;9.00;99.90;;;;;;5118759;27;20129;-72
2022/04/05 00:33:44;;;;;;;18.13;12.93;;;8.90;99.90;;;;;;5135077;27;20051;-73
2022/04/05 00:36:11;;;;;;;16.15;11.82;;;8.90;99.90;;;;;;5153874;27;20141;-74
2022/04/05 00:38:39;;;;;;;16.00;11.57;;;9.00;99.90;;;;;;5118770;27;20052;-73
2022/04/05 00:41:06;;;;;;;16.60;11.77;;;8.90;99.90;;;;;;5154039;27;20050;-72
2022/04/05 00:43:33;;;;;;;17.63;11.63;;;8.80;99.90;;;;;;5153840;27;20118;-73
2022/04/05 00:46:01;;;;;;;18.80;12.10;;;8.80;99.90;;;;;;5153846;27;20049;-73
2022/04/05 00:48:28;;;;;;;17.10;11.30;;;8.80;99.90;;;;;;5139151;27;20047;-73
2022/04/05 00:50:55;;;;;;;19.48;12.23;;;8.70;99.90;;;;;;5133077;27;20053;-73
2022/04/05 00:53:26;;;;;;;18.30;12.30;;;8.80;99.90;;;;;;5097536;27;20038;-74
2022/04/05 00:55:57;;;;;;;18.20;11.75;;;8.80;99.90;;;;;;5114860;27;20046;-75
2022/04/05 00:58:26;;;;;;;15.18;11.63;;;8.80;99.90;;;;;;5132833;27;20383;-75
2022/04/05 01:00:54;;;;;;;18.17;11.95;;;8.70;99.90;;;;;;5114704;27;20138;-73
2022/04/05 01:03:22;;;;;;;17.35;11.85;;;8.70;99.90;;;;;;5114016;27;20493;-75
2022/04/05 01:05:52;;;;;;;15.45;11.35;;;8.90;99.90;;;;;;5114798;27;20055;-73
2022/04/05 01:08:22;;;;;;;16.35;11.80;;;8.90;99.90;;;;;;5132800;27;20047;-71
2022/04/05 01:10:51;;;;;;;16.45;12.23;;;9.00;99.90;;;;;;5114440;27;20039;-72
2022/04/05 01:13:20;;;;;;;17.45;11.50;;;8.90;99.90;;;;;;5132455;27;20422;-74
2022/04/05 01:15:48;;;;;;;14.27;11.00;;;8.80;99.90;;;;;;5097641;27;20401;-74
2022/04/05 01:18:15;;;;;;;19.63;11.93;;;8.70;99.90;;;;;;5097177;27;20043;-74
2022/04/05 01:20:43;;;;;;;15.32;10.75;;;8.50;99.90;;;;;;5097648;27;20066;-74
2022/04/05 01:23:11;;;;;;;14.18;11.35;;;8.60;99.90;;;;;;5114129;27;20043;-73
2022/04/05 01:25:42;;;;;;;15.30;10.75;;;8.60;99.90;;;;;;5097093;27;20039;-72
2022/04/05 01:28:09;;;;;;;21.50;11.43;;;8.70;99.90;;;;;;5114221;27;20126;-73
2022/04/05 01:30:37;;;;;;;12.60;9.60;;;8.80;99.90;;;;;;5097257;27;20057;-74
2022/04/05 01:33:05;;;;;;;11.95;9.35;;;8.80;99.90;;;;;;5097323;27;20046;-73
2022/04/05 01:35:34;;;;;;;12.32;8.60;;;8.60;99.90;;;;;;5132220;27;20062;-74
2022/04/05 01:38:03;;;;;;;11.48;8.82;;;8.50;99.90;;;;;;5113944;27;20637;-74
2022/04/05 01:40:30;;;;;;;12.48;9.15;;;8.50;99.90;;;;;;5113707;28;20119;-74
2022/04/05 01:42:57;;;;;;;12.35;9.20;;;8.60;99.90;;;;;;5113620;27;20035;-73
2022/04/05 01:45:25;;;;;;;14.52;9.63;;;8.50;99.90;;;;;;5113493;28;20061;-74
2022/04/05 01:47:52;;;;;;;16.67;9.65;;;8.40;99.90;;;;;;5104013;27;20043;-73
2022/04/05 01:50:20;;;;;;;13.02;9.30;;;8.50;99.90;;;;;;5134442;27;20051;-74
2022/04/05 01:52:47;;;;;;;14.32;9.73;;;8.60;99.90;;;;;;5152783;27;20043;-74
2022/04/05 01:55:16;;;;;;;12.57;9.20;;;8.60;99.90;;;;;;5134432;27;20039;-75
2022/04/05 01:57:43;;;;;;;14.52;10.27;;;8.60;99.90;;;;;;5116827;27;20035;-74
2022/04/05 02:00:14;;;;;;;13.88;8.40;;;8.50;99.90;;;;;;5134131;27;20061;-74
2022/04/05 02:02:43;;;;;;;11.68;9.27;;;8.40;99.90;;;;;;5134442;27;20090;-73
2022/04/05 02:05:11;;;;;;;13.82;9.10;;;8.30;99.90;;;;;;5152813;27;20035;-72
2022/04/05 02:07:38;;;;;;;10.88;8.10;;;8.40;99.90;;;;;;5152312;27;20045;-75
2022/04/05 02:10:06;;;;;;;13.63;9.32;;;8.40;99.90;;;;;;5117413;27;20043;-74
2022/04/05 02:12:33;;;;;;;12.35;8.75;;;8.40;99.90;;;;;;5134374;27;20523;-72
2022/04/05 02:15:01;;;;;;;11.63;9.00;;;8.40;99.90;;;;;;5116840;27;20409;-73
2022/04/05 02:17:28;;;;;;;11.40;8.15;;;8.40;99.90;;;;;;5116646;27;20458;-74
2022/04/05 02:19:56;;;;;;;12.43;9.38;;;8.40;99.90;;;;;;5152536;27;20045;-72
2022/04/05 02:22:24;;;;;;;13.82;8.32;;;8.40;99.90;;;;;;5133723;27;20480;-74
2022/04/05 02:24:52;;;;;;;12.75;8.90;;;8.50;99.90;;;;;;5133600;27;20397;-74
2022/04/05 02:27:24;;;;;;;14.43;9.57;;;8.50;99.90;;;;;;5152301;27;20067;-74
2022/04/05 02:29:51;;;;;;;14.07;8.98;;;8.60;99.90;;;;;;5133484;27;20497;-73
2022/04/05 02:32:19;;;;;;;13.30;9.20;;;8.60;99.90;;;;;;5152274;27;20122;-74
2022/04/05 02:34:46;;;;;;;14.05;10.70;;;8.50;99.90;;;;;;5133417;27;20386;-74
2022/04/05 02:37:14;;;;;;;15.23;10.45;;;8.50;99.90;;;;;;5152038;27;20043;-71
2022/04/05 02:39:41;;;;;;;14.48;10.45;;;8.50;99.90;;;;;;5134148;27;20405;-73
2022/04/05 02:42:09;;;;;;;13.50;9.52;;;8.60;99.90;;;;;;5151864;27;20054;-74
2022/04/05 02:44:38;;;;;;;12.68;9.80;;;8.70;99.90;;;;;;5133590;27;20041;-74
2022/04/05 02:47:07;;;;;;;14.75;10.27;;;8.50;99.90;;;;;;5116782;27;20078;-73
2022/04/05 02:49:34;;;;;;;13.55;9.38;;;8.60;99.90;;;;;;5096939;28;20139;-72
2022/04/05 02:52:03;;;;;;;12.13;10.25;;;8.60;99.90;;;;;;5112958;28;20145;-73
2022/04/05 02:54:30;;;;;;;16.23;9.98;;;8.60;99.90;;;;;;5131645;27;20062;-73
2022/04/05 02:56:57;;;;;;;14.15;10.55;;;8.60;99.90;;;;;;5134131;27;20070;-71
2022/04/05 02:59:25;;;;;;;13.93;9.98;;;8.60;99.90;;;;;;5116524;27;20035;-73
2022/04/05 03:01:52;;;;;;;16.02;10.85;;;8.70;99.90;;;;;;5116953;27;20047;-71
2022/04/05 03:04:20;;;;;;;14.30;10.00;;;8.80;99.90;;;;;;5135280;27;20039;-72
2022/04/05 03:06:47;;;;;;;14.35;9.57;;;8.80;99.90;;;;;;5134902;27;20464;-73
2022/04/05 03:09:15;;;;;;;13.63;9.38;;;8.80;99.90;;;;;;5116968;27;20039;-73
2022/04/05 03:11:43;;;;;;;14.85;10.13;;;8.60;99.90;;;;;;5116508;27;20047;-72
2022/04/05 03:14:10;;;;;;;12.90;10.07;;;8.50;99.90;;;;;;5099575;27;20039;-73
2022/04/05 03:16:38;;;;;;;16.58;9.82;;;8.50;99.90;;;;;;5134879;27;20148;-73
2022/04/05 03:19:07;;;;;;;14.27;9.65;;;8.50;99.90;;;;;;5116327;27;20047;-73
2022/04/05 03:21:35;;;;;;;12.73;10.00;;;8.50;99.90;;;;;;5116415;27;20468;-71
2022/04/05 03:24:03;;;;;;;17.15;10.23;;;8.50;99.90;;;;;;5134894;27;20114;-72
2022/04/05 03:26:31;;;;;;;15.05;10.07;;;8.50;99.90;;;;;;5134749;27;20047;-71
2022/04/05 03:28:59;;;;;;;14.18;10.30;;;8.50;99.90;;;;;;5116547;27;20508;-72
2022/04/05 03:31:26;;;;;;;17.30;9.80;;;8.50;99.90;;;;;;5134529;27;20047;-72
2022/04/05 03:33:53;;;;;;;15.73;10.40;;;8.50;99.90;;;;;;5134580;27;20080;-72
2022/04/05 03:36:21;;;;;;;15.20;10.77;;;8.40;99.90;;;;;;5134618;27;20047;-73
2022/04/05 03:38:48;;;;;;;15.07;10.30;;;8.20;99.90;;;;;;5116483;27;20043;-73
2022/04/05 03:41:15;;;;;;;15.18;10.07;;;8.30;99.90;;;;;;5134388;27;20047;-71
2022/04/05 03:43:43;;;;;;;13.93;10.80;;;8.30;99.90;;;;;;5134527;27;20042;-72
2022/04/05 03:46:10;;;;;;;16.30;10.38;;;8.30;99.90;;;;;;5134606;27;20504;-72
2022/04/05 03:48:38;;;;;;;14.20;10.48;;;8.20;99.90;;;;;;5144195;27;20542;-72
2022/04/05 03:51:09;;;;;;;14.85;9.95;;;8.30;99.90;;;;;;5155191;27;20378;-71
2022/04/05 03:53:37;;;;;;;16.52;10.73;;;8.20;99.90;;;;;;5136770;27;20530;-73
2022/04/05 03:56:05;;;;;;;13.70;9.73;;;8.20;99.90;;;;;;5155062;27;20035;-72
2022/04/05 03:58:32;;;;;;;13.15;9.85;;;8.30;99.90;;;;;;5154561;27;20057;-72
2022/04/05 04:00:59;;;;;;;16.98;10.18;;;8.30;99.90;;;;;;5154892;27;20031;-75
2022/04/05 04:03:26;;;;;;;16.83;10.00;;;8.40;99.90;;;;;;5154478;27;20049;-73
2022/04/05 04:05:54;;;;;;;14.10;9.75;;;8.30;99.90;;;;;;5136144;27;20133;-72
2022/04/05 04:08:21;;;;;;;14.95;10.07;;;8.40;99.90;;;;;;5154303;27;20046;-74
2022/04/05 04:10:48;;;;;;;11.57;9.43;;;8.40;99.90;;;;;;5154325;27;20091;-74
2022/04/05 04:13:16;;;;;;;14.02;10.52;;;8.40;99.90;;;;;;5154607;27;20062;-72
2022/04/05 04:15:43;;;;;;;15.35;10.65;;;8.30;99.90;;;;;;5119389;27;20053;-74
2022/04/05 04:18:11;;;;;;;18.42;11.00;;;8.30;99.90;;;;;;5135616;27;20054;-74
2022/04/05 04:20:38;;;;;;;16.90;12.00;;;8.30;99.90;;;;;;5154388;27;20039;-74
2022/04/05 04:23:06;;;;;;;18.33;13.15;;;8.30;99.90;;;;;;5136028;27;20103;-74
2022/04/05 04:25:37;;;;;;;17.50;11.45;;;8.30;99.90;;;;;;5136111;27;20040;-74
2022/04/05 04:28:05;;;;;;;14.95;11.20;;;8.30;99.90;;;;;;5154114;27;20050;-72
2022/04/05 04:30:33;;;;;;;17.02;11.60;;;8.40;99.90;;;;;;5154439;27;20512;-72
2022/04/05 04:33:02;;;;;;;14.98;10.85;;;8.40;99.90;;;;;;5153932;27;20186;-72
2022/04/05 04:35:30;;;;;;;15.77;11.65;;;8.20;99.90;;;;;;5135882;27;20035;-73
2022/04/05 04:38:03;;;;;;;14.57;11.23;;;8.30;99.90;;;;;;5135466;27;20494;-74
2022/04/05 04:40:30;;;;;;;16.17;11.25;;;8.00;99.90;;;;;;5153893;27;20053;-72
2022/04/05 04:42:58;;;;;;;19.77;11.25;;;8.00;99.90;;;;;;5153769;27;20038;-72
2022/04/05 04:45:27;;;;;;;19.77;12.50;;;8.10;99.90;;;;;;5154536;27;20421;-73
2022/04/05 04:47:55;;;;;;;16.47;11.07;;;8.10;99.90;;;;;;5152013;27;20061;-72
2022/04/05 04:50:23;;;;;;;16.17;12.25;;;8.00;99.90;;;;;;5133319;27;20039;-72
2022/04/05 04:52:50;;;;;;;17.65;12.35;;;8.10;99.90;;;;;;5133219;27;20397;-74
2022/04/05 04:55:17;;;;;;;16.00;11.77;;;8.20;99.90;;;;;;5114775;27;20050;-72
2022/04/05 04:57:44;;;;;;;15.95;11.73;;;8.30;99.90;;;;;;5133013;27;20046;-73
2022/04/05 05:00:12;;;;;;;17.75;12.77;;;8.20;99.90;;;;;;5133209;27;20055;-73
2022/04/05 05:02:46;;;;;;;17.70;12.50;;;8.20;99.90;;;;;;5132910;27;20394;-75
2022/04/05 05:05:23;;;;;;;27.58;12.02;;;8.20;99.90;;;;;;5132965;27;20122;-72
2022/04/05 05:07:52;;;;;;;16.75;12.73;;;8.30;99.90;;;;;;5132033;27;20038;-74
2022/04/05 05:10:21;;;;;;;17.35;11.32;;;8.20;99.90;;;;;;5132796;27;20036;-73
2022/04/05 05:12:48;;;;;;;15.40;11.57;;;8.20;99.90;;;;;;5132547;27;20386;-72
2022/04/05 05:15:18;;;;;;;18.98;12.73;;;8.00;99.90;;;;;;5113878;27;20050;-72
2022/04/05 05:17:47;;;;;;;16.65;11.30;;;8.10;99.90;;;;;;5131863;27;20062;-73
2022/04/05 05:20:16;;;;;;;20.35;11.90;;;8.10;99.90;;;;;;5131869;27;20042;-76
2022/04/05 05:22:43;;;;;;;17.55;11.52;;;8.00;99.90;;;;;;5113578;27;20043;-72
2022/04/05 05:25:11;;;;;;;19.77;11.73;;;8.10;99.90;;;;;;5132118;27;20281;-73
2022/04/05 05:27:39;;;;;;;114.75;63.25;;;8.00;99.90;;;;;;5131906;27;20039;-74
2022/04/05 05:30:08;;;;;;;52.95;33.42;;;8.20;99.90;;;;;;5131911;27;20440;-73
2022/04/05 05:32:47;;;;;;;28.67;19.40;;;8.30;99.90;;;;;;5132203;27;20035;-73
2022/04/05 05:35:16;;;;;;;24.20;15.35;;;8.20;99.90;;;;;;5131596;27;20494;-72
2022/04/05 05:37:44;;;;;;;26.05;16.77;;;8.30;99.90;;;;;;5129986;27;20390;-72
2022/04/05 05:40:12;;;;;;;115.07;60.67;;;8.30;99.90;;;;;;5112169;27;20039;-74
2022/04/05 05:43:04;;;;;;;38.50;24.58;;;8.50;99.90;;;;;;5130398;27;20039;-73
2022/04/05 05:45:38;;;;;;;151.35;80.50;;;8.70;99.90;;;;;;5130508;28;20095;-73
2022/04/05 05:48:06;;;;;;;91.63;56.47;;;8.80;99.90;;;;;;5131692;27;20031;-73
2022/04/05 05:50:35;;;;;;;22.23;16.65;;;8.90;99.90;;;;;;5151248;27;20446;-72
2022/04/05 05:53:03;;;;;;;19.85;13.40;;;8.70;99.90;;;;;;5124973;28;20051;-72
2022/04/05 05:55:31;;;;;;;20.17;13.63;;;8.70;99.90;;;;;;5128950;28;20043;-71
2022/04/05 05:57:58;;;;;;;21.35;13.00;;;8.80;99.90;;;;;;5113467;28;20031;-72
2022/04/05 06:00:25;;;;;;;21.55;13.73;;;8.90;99.90;;;;;;5131179;28;20394;-72
2022/04/05 06:03:01;;;;;;;17.08;11.88;;;8.90;99.90;;;;;;5131235;28;20035;-75
2022/04/05 06:05:30;;;;;;;22.15;12.85;;;9.00;99.90;;;;;;5130200;28;20055;-70
2022/04/05 06:07:57;;;;;;;16.48;11.15;;;9.00;99.90;;;;;;5105508;28;20035;-73
2022/04/05 06:10:25;;;;;;;20.10;11.68;;;9.00;99.90;;;;;;5131583;28;20045;-72
2022/04/05 06:12:55;;;;;;;16.70;11.20;;;9.00;99.90;;;;;;5105474;28;20169;-72
2022/04/05 06:15:25;;;;;;;18.73;11.40;;;9.10;99.90;;;;;;5129841;28;20032;-71
2022/04/05 06:17:53;;;;;;;25.73;17.50;;;9.20;99.90;;;;;;5130960;28;20047;-73
2022/04/05 06:20:21;;;;;;;40.42;24.17;;;9.70;99.90;;;;;;5113307;28;20115;-72
2022/04/05 06:22:53;;;;;;;62.22;36.80;;;9.90;99.90;;;;;;5113077;28;20159;-73
2022/04/05 06:25:27;;;;;;;22.38;16.00;;;10.00;99.90;;;;;;5131797;28;20457;-74
2022/04/05 06:27:58;;;;;;;16.27;11.43;;;9.70;99.90;;;;;;5113385;28;20032;-71
2022/04/05 06:30:25;;;;;;;15.13;10.00;;;9.60;99.90;;;;;;5134003;27;20054;-72
2022/04/05 06:33:14;;;;;;;14.32;10.38;;;9.50;99.90;;;;;;5135463;27;20031;-73
2022/04/05 06:35:46;;;;;;;14.65;10.07;;;9.60;99.90;;;;;;5135439;27;20496;-74
2022/04/05 06:38:14;;;;;;;15.13;10.70;;;9.60;99.90;;;;;;5135426;27;20122;-73
2022/04/05 06:40:43;;;;;;;12.52;9.43;;;9.70;99.90;;;;;;5135752;27;20072;-74
2022/04/05 06:43:15;;;;;;;14.88;9.40;;;9.80;99.90;;;;;;5135331;27;20043;-73
2022/04/05 06:45:43;;;;;;;13.30;9.98;;;9.70;99.90;;;;;;5117454;27;20039;-72
2022/04/05 06:48:10;;;;;;;13.15;9.68;;;9.70;99.90;;;;;;5135302;27;20046;-75
2022/04/05 06:50:39;;;;;;;14.52;9.95;;;9.80;99.90;;;;;;5156184;27;20034;-71
2022/04/05 06:53:08;;;;;;;14.93;9.98;;;9.80;99.90;;;;;;5137574;27;20038;-73
2022/04/05 06:55:36;;;;;;;14.68;10.30;;;9.80;99.90;;;;;;5137260;27;20047;-71
2022/04/05 06:58:05;;;;;;;13.23;9.73;;;9.70;99.90;;;;;;5107167;28;20063;-72
2022/04/05 07:00:33;;;;;;;14.65;11.18;;;9.60;99.90;;;;;;5113974;28;20119;-73
2022/04/05 07:03:01;;;;;;;15.32;10.82;;;9.60;99.90;;;;;;5096321;28;20047;-76
2022/04/05 07:05:28;;;;;;;14.18;9.95;;;9.60;99.90;;;;;;5095812;28;20487;-75
2022/04/05 07:07:56;;;;;;;17.52;11.40;;;9.50;99.90;;;;;;5114127;28;20044;-74
2022/04/05 07:10:24;;;;;;;11.82;9.55;;;9.60;99.90;;;;;;5096200;28;20051;-73
2022/04/05 07:12:52;;;;;;;12.38;8.98;;;9.40;99.90;;;;;;5121177;27;20050;-73
2022/04/05 07:15:20;;;;;;;14.68;9.63;;;9.50;99.90;;;;;;5134970;27;20131;-76
2022/04/05 07:17:47;;;;;;;54.58;31.40;;;9.70;99.90;;;;;;5134439;27;20134;-71
2022/04/05 07:20:29;;;;;;;68.55;40.20;;;9.80;99.90;;;;;;5116400;27;20047;-71
2022/04/05 07:22:57;;;;;;;49.65;31.02;;;10.10;99.90;;;;;;5116220;27;20047;-74
2022/04/05 07:25:24;;;;;;;18.50;11.70;;;10.50;99.90;;;;;;5099147;27;20043;-75
2022/04/05 07:27:52;;;;;;;15.15;8.80;;;10.40;99.90;;;;;;5133946;27;20053;-71
2022/04/05 07:30:21;;;;;;;13.05;8.88;;;9.90;99.90;;;;;;5099443;27;20049;-70
2022/04/05 07:32:48;;;;;;;12.80;9.55;;;10.00;99.90;;;;;;5099007;27;20155;-73
2022/04/05 07:35:17;;;;;;;12.02;8.65;;;10.10;99.90;;;;;;5116284;27;20043;-71
2022/04/05 07:37:46;;;;;;;12.60;9.68;;;10.10;99.90;;;;;;5099154;27;20050;-73
2022/04/05 07:40:15;;;;;;;11.98;7.95;;;10.20;99.90;;;;;;5134607;27;20114;-73
2022/04/05 07:42:45;;;;;;;11.15;8.30;;;10.20;99.90;;;;;;5133307;27;20443;-74
2022/04/05 07:45:14;;;;;;;12.13;9.30;;;10.20;99.90;;;;;;5115530;27;20456;-74
2022/04/05 07:47:42;;;;;;;12.80;9.85;;;10.40;99.90;;;;;;5115538;27;20138;-72
2022/04/05 07:50:10;;;;;;;15.00;10.32;;;10.30;99.90;;;;;;5149375;27;20110;-73
2022/04/05 07:52:38;;;;;;;14.70;9.65;;;10.50;99.90;;;;;;5136673;27;20043;-75
2022/04/05 07:55:07;;;;;;;12.85;9.40;;;10.80;99.90;;;;;;5118764;27;20070;-75
2022/04/05 07:57:36;;;;;;;15.65;8.98;;;10.90;99.90;;;;;;5149786;27;20049;-72
2022/04/05 08:00:05;;;;;;;10.38;7.75;;;11.10;99.90;;;;;;5115851;27;20035;-72
2022/04/05 08:02:32;;;;;;;10.23;7.50;;;11.10;99.90;;;;;;5098532;27;20467;-73
2022/04/05 08:05:09;;;;;;;9.48;6.82;;;11.10;99.90;;;;;;5134130;27;20390;-73
2022/04/05 08:07:37;;;;;;;7.72;6.25;;;11.00;99.90;;;;;;5115666;27;20066;-72
2022/04/05 08:10:05;;;;;;;8.55;6.93;;;10.90;99.90;;;;;;5115698;27;20045;-72
2022/04/05 08:12:44;;;;;;;9.38;6.30;;;10.80;99.90;;;;;;5133332;27;20431;-72
2022/04/05 08:15:14;;;;;;;8.63;6.45;;;10.90;99.90;;;;;;5115440;27;20078;-72
2022/04/05 08:17:42;;;;;;;8.73;6.20;;;11.10;99.90;;;;;;5114974;27;20122;-72
2022/04/05 08:20:10;;;;;;;13.00;6.40;;;11.30;99.90;;;;;;5115571;27;20397;-73
2022/04/05 08:22:38;;;;;;;8.68;6.15;;;11.40;99.90;;;;;;5114904;27;20168;-71
2022/04/05 08:25:07;;;;;;;10.25;6.55;;;11.30;99.90;;;;;;5114180;27;20435;-74
2022/04/05 08:27:35;;;;;;;9.30;6.10;;;11.40;99.90;;;;;;5113839;27;20067;-72
2022/04/05 08:30:04;;;;;;;8.82;6.80;;;11.60;99.90;;;;;;5113760;27;20636;-74
2022/04/05 08:32:31;;;;;;;8.45;6.28;;;11.70;99.90;;;;;;5094453;27;20525;-73
2022/04/05 08:34:59;;;;;;;8.55;5.93;;;11.60;99.90;;;;;;5113872;27;20058;-73
2022/04/05 08:37:26;;;;;;;8.48;5.97;;;11.70;99.90;;;;;;5110678;27;20049;-72
2022/04/05 08:39:53;;;;;;;8.85;5.97;;;11.70;99.90;;;;;;5113733;27;20074;-72
2022/04/05 08:42:21;;;;;;;9.35;6.35;;;11.60;99.90;;;;;;5131524;27;20053;-73
2022/04/05 08:44:49;;;;;;;8.73;6.10;;;11.50;99.90;;;;;;5113680;27;20043;-72
2022/04/05 08:47:23;;;;;;;10.60;6.32;;;11.70;99.90;;;;;;5131693;27;20487;-74
2022/04/05 08:49:50;;;;;;;10.05;6.15;;;11.70;99.90;;;;;;5130012;27;20114;-73
2022/04/05 08:52:17;;;;;;;9.50;5.65;;;11.60;99.90;;;;;;5113482;27;20485;-73
2022/04/05 08:54:45;;;;;;;9.40;6.50;;;11.70;99.90;;;;;;5113810;27;20440;-72
2022/04/05 08:57:12;;;;;;;10.40;6.20;;;11.80;99.90;;;;;;5130805;27;20043;-75
2022/04/05 08:59:39;;;;;;;11.60;6.10;;;11.90;99.90;;;;;;5113315;27;20102;-72
2022/04/05 09:02:07;;;;;;;8.60;6.13;;;12.00;99.90;;;;;;5128465;27;20479;-72
2022/04/05 09:04:34;;;;;;;11.57;7.20;;;12.00;99.90;;;;;;5131451;27;20035;-72
2022/04/05 09:07:18;;;;;;;8.82;6.75;;;12.30;99.90;;;;;;5131219;27;20579;-71
2022/04/05 09:09:45;;;;;;;11.40;8.40;;;12.20;99.90;;;;;;5131491;27;20047;-73
2022/04/05 09:12:17;;;;;;;10.75;7.32;;;12.50;99.90;;;;;;5131902;27;20045;-73
2022/04/05 09:14:44;;;;;;;10.45;7.13;;;12.60;99.90;;;;;;5097147;27;20050;-72
2022/04/05 09:17:14;;;;;;;11.85;7.00;;;12.80;99.90;;;;;;5097142;27;20135;-73
2022/04/05 09:19:45;;;;;;;9.48;6.82;;;12.50;99.90;;;;;;5132150;27;20039;-73
2022/04/05 09:22:13;;;;;;;9.80;6.75;;;12.30;99.90;;;;;;5110734;27;20087;-72
2022/04/05 09:24:45;;;;;;;10.30;6.93;;;12.40;99.90;;;;;;5131251;27;20046;-73
2022/04/05 09:27:13;;;;;;;10.57;7.07;;;12.80;99.90;;;;;;5131440;27;20043;-73
2022/04/05 09:29:44;;;;;;;7.15;5.35;;;12.70;99.90;;;;;;5131929;27;20043;-74
2022/04/05 09:32:30;;;;;;;9.52;5.90;;;12.60;99.90;;;;;;5113687;27;20126;-73
2022/04/05 09:34:57;;;;;;;8.18;5.50;;;12.50;99.90;;;;;;5132240;27;20058;-76
2022/04/05 09:37:26;;;;;;;8.93;5.88;;;12.90;99.90;;;;;;5113583;27;20051;-76
2022/04/05 09:39:55;;;;;;;7.43;5.38;;;13.00;99.90;;;;;;5114030;27;20443;-72
2022/04/05 09:42:22;;;;;;;10.45;5.97;;;12.80;99.90;;;;;;5096815;28;20557;-73
2022/04/05 09:44:49;;;;;;;7.40;5.55;;;13.10;99.90;;;;;;5114153;28;20035;-76
2022/04/05 09:47:21;;;;;;;7.93;5.78;;;13.50;99.90;;;;;;5113492;28;20048;-74
2022/04/05 09:49:49;;;;;;;23.55;13.27;;;13.70;99.90;;;;;;5151704;27;20627;-74
2022/04/05 09:52:34;;;;;;;51.10;31.02;;;14.00;99.90;;;;;;5132953;27;20401;-73
2022/04/05 09:55:16;;;;;;;14.05;8.95;;;14.00;99.90;;;;;;5112062;28;20046;-76
2022/04/05 09:57:45;;;;;;;10.68;5.93;;;13.60;99.90;;;;;;5112839;28;20043;-74
2022/04/05 10:00:16;;;;;;;9.23;6.03;;;13.40;99.90;;;;;;5113308;28;20047;-73
2022/04/05 10:03:18;;;;;;;9.20;5.65;;;13.40;99.90;;;;;;5113541;28;20051;-73
2022/04/05 10:05:53;;;;;;;9.57;6.10;;;13.70;99.90;;;;;;5102990;27;20078;-75
2022/04/05 10:08:22;;;;;;;9.90;6.45;;;13.80;99.90;;;;;;5100353;27;20391;-72
2022/04/05 10:10:50;;;;;;;14.00;6.63;;;13.70;99.90;;;;;;5117331;27;20482;-73
2022/04/05 10:13:17;;;;;;;8.07;6.15;;;13.70;99.90;;;;;;5096630;28;20082;-72
2022/04/05 10:15:48;;;;;;;17.75;7.00;;;13.80;99.90;;;;;;5096967;28;20044;-72
2022/04/05 10:18:18;;;;;;;10.10;6.50;;;14.10;99.90;;;;;;5096316;28;20048;-72
2022/04/05 10:20:49;;;;;;;9.82;6.90;;;14.20;99.90;;;;;;5097202;28;20418;-72
2022/04/05 10:23:22;;;;;;;10.88;5.88;;;14.60;99.90;;;;;;5114796;28;20044;-74
2022/04/05 10:25:52;;;;;;;9.00;5.95;;;14.80;99.90;;;;;;5096871;28;20108;-73
2022/04/05 10:28:25;;;;;;;10.98;6.57;;;14.70;99.70;;;;;;5107804;27;20041;-74
2022/04/05 10:30:59;;;;;;;10.82;6.53;;;14.50;99.90;;;;;;5135551;27;20405;-71
2022/04/05 10:33:45;;;;;;;8.75;6.32;;;14.70;99.10;;;;;;5134658;27;20410;-71
2022/04/05 10:36:12;;;;;;;8.70;6.00;;;14.00;99.90;;;;;;5117423;27;20035;-71
2022/04/05 10:38:40;;;;;;;10.23;6.80;;;14.00;99.90;;;;;;5099230;27;20213;-73
2022/04/05 10:41:22;;;;;;;9.85;6.70;;;13.90;99.90;;;;;;5116803;27;20035;-73
2022/04/05 10:44:22;;;;;;;13.73;6.72;;;14.20;99.90;;;;;;5116810;27;20043;-72
2022/04/05 10:46:58;;;;;;;8.50;6.00;;;14.00;99.90;;;;;;5117126;27;20444;-73
2022/04/05 10:49:48;;;;;;;8.60;6.00;;;14.20;99.90;;;;;;5120273;27;20065;-72
2022/04/05 10:52:18;;;;;;;12.75;6.28;;;14.30;99.90;;;;;;5137224;27;20045;-71
2022/04/05 10:54:51;;;;;;;11.90;6.37;;;14.30;99.90;;;;;;5155602;27;20153;-74
2022/04/05 10:57:26;;;;;;;12.13;6.70;;;14.20;99.90;;;;;;5116964;27;20053;-71
2022/04/05 11:00:14;;;;;;;11.15;6.82;;;14.10;99.90;;;;;;5100176;27;20134;-72
2022/04/05 11:02:58;;;;;;;8.82;6.45;;;13.90;99.90;;;;;;5116417;27;20046;-71
2022/04/05 11:05:35;;;;;;;11.68;7.07;;;14.10;99.90;;;;;;5134745;27;20047;-72
2022/04/05 11:08:07;;;;;;;12.20;7.20;;;14.30;99.90;;;;;;5115081;27;20390;-72
2022/04/05 11:10:37;;;;;;;8.82;6.10;;;14.40;99.90;;;;;;5116888;27;20051;-75
2022/04/05 11:13:09;;;;;;;8.70;6.28;;;14.00;99.90;;;;;;5095423;28;20040;-71
2022/04/05 11:15:47;;;;;;;11.63;6.13;;;13.90;99.90;;;;;;5113518;28;20043;-71
2022/04/05 11:18:17;;;;;;;9.02;6.20;;;13.90;99.90;;;;;;5095159;28;20116;-70
2022/04/05 11:20:45;;;;;;;10.98;5.88;;;13.80;99.90;;;;;;5096157;28;20430;-70
2022/04/05 11:23:15;;;;;;;11.38;6.38;;;13.70;99.90;;;;;;5078983;28;20756;-74
2022/04/05 11:25:45;;;;;;;9.30;6.07;;;13.60;99.90;;;;;;5096062;28;20050;-73
2022/04/05 11:28:15;;;;;;;8.95;6.50;;;13.60;99.90;;;;;;5105785;27;20051;-73
2022/04/05 11:30:49;;;;;;;7.85;5.82;;;13.90;99.90;;;;;;5134720;27;20042;-74
2022/04/05 11:33:37;;;;;;;9.75;6.43;;;14.20;99.90;;;;;;5116418;27;20417;-74
2022/04/05 11:36:13;;;;;;;8.20;5.90;;;14.10;99.90;;;;;;5116414;27;20123;-72
2022/04/05 11:38:46;;;;;;;11.38;6.45;;;13.90;99.90;;;;;;5115986;27;20053;-71
2022/04/05 11:41:26;;;;;;;10.23;6.53;;;13.90;99.90;;;;;;5116342;27;20421;-70
2022/04/05 11:44:07;;;;;;;9.15;6.10;;;13.70;99.90;;;;;;5095342;28;20398;-74
2022/04/05 11:46:36;;;;;;;8.23;6.30;;;14.00;99.90;;;;;;5095494;28;20130;-74
2022/04/05 11:49:06;;;;;;;11.05;6.10;;;14.40;99.60;;;;;;5132989;27;20453;-76
2022/04/05 11:51:36;;;;;;;14.38;7.32;;;14.60;99.20;;;;;;5136710;27;20546;-73
2022/04/05 11:54:23;;;;;;;13.27;7.60;;;14.80;99.10;;;;;;5136428;27;20498;-73
2022/04/05 11:56:52;;;;;;;15.95;7.95;;;15.20;98.80;;;;;;5136641;27;20042;-73
2022/04/05 11:59:27;;;;;;;17.83;11.38;;;15.40;98.10;;;;;;5095693;28;20050;-72
2022/04/05 12:01:54;;;;;;;10.90;7.07;;;15.90;96.00;;;;;;5095212;28;20079;-71
2022/04/05 12:04:22;;;;;;;11.57;6.63;;;15.90;94.60;;;;;;5113500;28;20040;-72
2022/04/05 12:06:58;;;;;;;11.95;5.32;;;16.40;94.40;;;;;;5094962;28;20042;-74
2022/04/05 12:09:26;;;;;;;10.90;5.03;;;16.30;92.50;;;;;;5095234;28;20167;-74
2022/04/05 12:11:54;;;;;;;9.38;5.93;;;15.90;91.60;;;;;;5078493;28;20414;-73
2022/04/05 12:14:25;;;;;;;10.20;5.30;;;15.90;93.70;;;;;;5133470;27;20042;-73
2022/04/05 12:16:56;;;;;;;8.88;4.78;;;16.40;91.70;;;;;;5133510;27;20045;-69
2022/04/05 12:19:26;;;;;;;12.73;4.82;;;17.00;85.60;;;;;;5133577;27;20055;-70
2022/04/05 12:21:57;;;;;;;6.68;4.22;;;16.70;81.60;;;;;;5098868;27;20053;-70
2022/04/05 12:24:25;;;;;;;10.27;4.43;;;16.30;82.90;;;;;;5133562;27;20436;-69
2022/04/05 12:26:56;;;;;;;8.82;4.85;;;16.80;81.90;;;;;;5133056;27;20096;-74
2022/04/05 12:29:25;;;;;;;10.15;4.68;;;16.70;80.40;;;;;;5115101;27;20043;-71
2022/04/05 12:31:53;;;;;;;6.72;4.65;;;17.20;80.60;;;;;;5115035;27;20058;-71
2022/04/05 12:34:21;;;;;;;6.45;4.45;;;17.90;76.90;;;;;;5115418;27;20042;-72
2022/04/05 12:36:58;;;;;;;10.02;4.90;;;17.80;75.90;;;;;;5132880;27;20134;-72
2022/04/05 12:39:30;;;;;;;7.78;4.82;;;18.70;73.30;;;;;;5132984;27;20039;-72
2022/04/05 12:42:09;;;;;;;36.92;23.20;;;17.80;74.00;;;;;;5098343;27;20100;-72
2022/04/05 12:44:39;;;;;;;15.18;8.02;;;17.10;77.90;;;;;;5094232;28;20062;-73
2022/04/05 12:47:32;;;;;;;17.63;12.35;;;17.80;76.00;;;;;;5078742;28;20435;-73
2022/04/05 12:50:04;;;;;;;12.90;5.25;;;21.20;67.40;;;;;;5125167;27;20400;-73
2022/04/05 12:52:34;;;;;;;9.80;4.80;;;21.50;61.30;;;;;;5094283;28;20109;-72
2022/04/05 12:55:21;;;;;;;9.52;4.68;;;22.80;59.00;;;;;;5112401;28;20110;-70